Time;durP1;ratioP1;P1;durP2;ratioP2;P2;SDS_P1;SDS_P2;PMS_P1;PMS_P2;Temp;Humidity;BMP_temperature;BMP_pressure;BME280_temperature;BME280_humidity;BME280_pressure;Samples;Min_cycle;Max_cycle;Signal;HPM_P1;HPM_P2
2023/06/16 00:00:48;;;;;;;7.13;3.70;;;;;;;13.03;89.02;101015.84;6054104;28;20033;-66
2023/06/16 00:03:49;;;;;;;6.47;3.70;;;;;;;12.97;89.83;101032.41;6052465;28;20095;-66
2023/06/16 00:06:47;;;;;;;6.85;3.92;;;;;;;13.09;89.39;101028.56;6042261;28;20041;-66
2023/06/16 00:09:43;;;;;;;8.65;3.83;;;;;;;13.16;88.83;101025.25;6052900;28;20458;-66
2023/06/16 00:12:40;;;;;;;8.23;4.28;;;;;;;13.09;89.70;101031.22;6053114;28;20429;-67
2023/06/16 00:15:36;;;;;;;8.60;4.03;;;;;;;13.00;89.95;101024.13;6043816;28;20033;-67
2023/06/16 00:18:31;;;;;;;7.57;3.35;;;;;;;12.93;90.38;101025.75;6052826;28;20029;-67
2023/06/16 00:21:29;;;;;;;7.53;3.78;;;;;;;12.80;91.54;101008.50;6052952;28;20648;-67
2023/06/16 00:24:26;;;;;;;8.30;4.38;;;;;;;12.76;91.30;101013.28;6051036;28;20030;-67
2023/06/16 00:27:22;;;;;;;9.85;4.13;;;;;;;12.82;91.38;101025.97;6043085;28;20034;-66
2023/06/16 00:30:17;;;;;;;9.05;4.55;;;;;;;12.75;91.60;101027.56;6052497;28;20503;-67
2023/06/16 00:33:15;;;;;;;9.38;4.25;;;;;;;12.94;91.26;101032.72;6052768;28;20028;-67
2023/06/16 00:36:11;;;;;;;8.05;4.32;;;;;;;12.75;91.60;101027.56;6029458;28;20026;-67
2023/06/16 00:39:06;;;;;;;8.20;4.70;;;;;;;12.76;92.37;101036.38;6035824;28;20520;-68
2023/06/16 00:42:01;;;;;;;9.73;4.97;;;;;;;12.75;91.98;101024.91;6042335;28;20062;-66
2023/06/16 00:44:57;;;;;;;10.30;5.23;;;;;;;12.83;92.27;101030.28;6030275;28;20052;-67
2023/06/16 00:47:52;;;;;;;9.73;4.60;;;;;;;12.97;91.61;101036.91;6052223;28;20323;-67
2023/06/16 00:50:48;;;;;;;10.00;4.65;;;;;;;12.87;91.03;101017.53;6052219;28;20030;-67
2023/06/16 00:53:43;;;;;;;9.25;4.55;;;;;;;12.83;91.47;101019.66;6049714;28;20025;-67
2023/06/16 00:56:40;;;;;;;8.87;4.43;;;;;;;12.71;91.42;101014.72;6067172;28;20473;-67
2023/06/16 00:59:36;;;;;;;8.85;4.50;;;;;;;12.66;91.83;101023.16;6066700;28;20301;-67
2023/06/16 01:02:32;;;;;;;7.50;4.45;;;;;;;12.54;92.86;101009.25;6052169;28;20451;-67
2023/06/16 01:05:27;;;;;;;7.43;4.43;;;;;;;12.57;92.48;101025.88;6051399;28;20470;-66
2023/06/16 01:08:41;;;;;;;9.33;4.27;;;;;;;12.44;93.04;101005.81;6051504;28;20025;-66
2023/06/16 01:11:43;;;;;;;8.18;4.20;;;;;;;12.51;92.94;101008.69;6067147;28;20260;-67
2023/06/16 01:15:04;;;;;;;6.82;3.65;;;;;;;12.66;93.25;101024.97;6065930;28;20029;-67
2023/06/16 01:18:00;;;;;;;8.13;4.35;;;;;;;12.77;92.49;101025.59;6052210;28;20112;-66
2023/06/16 01:21:04;;;;;;;9.95;4.60;;;;;;;12.69;92.47;101030.81;6066581;28;20076;-67
2023/06/16 01:24:02;;;;;;;8.05;4.43;;;;;;;12.77;91.99;101024.75;6049674;28;20053;-67
2023/06/16 01:26:58;;;;;;;8.90;4.22;;;;;;;12.55;92.54;101008.25;6066521;28;20042;-66
2023/06/16 01:29:53;;;;;;;8.02;4.47;;;;;;;12.67;92.81;101023.97;6066595;28;20500;-66
2023/06/16 01:32:52;;;;;;;9.50;4.67;;;;;;;12.44;92.60;101012.97;6064975;28;20033;-66
2023/06/16 01:35:47;;;;;;;9.38;4.38;;;;;;;12.47;93.09;101023.31;6038300;28;20018;-66
2023/06/16 01:38:43;;;;;;;7.97;4.43;;;;;;;12.50;93.31;101038.97;6041987;28;20478;-66
2023/06/16 01:41:39;;;;;;;9.27;4.63;;;;;;;12.48;92.78;101014.31;6019497;28;20101;-66
2023/06/16 01:44:35;;;;;;;8.35;4.40;;;;;;;12.65;92.49;101033.94;6034866;28;20040;-66
2023/06/16 01:47:30;;;;;;;9.20;4.30;;;;;;;12.51;92.27;101027.31;6065612;28;20117;-66
2023/06/16 01:50:26;;;;;;;12.43;4.70;;;;;;;12.38;92.16;101018.88;6050963;28;20157;-66
2023/06/16 01:53:21;;;;;;;6.77;4.23;;;;;;;12.18;93.02;101012.00;6046484;28;20124;-66
2023/06/16 01:56:16;;;;;;;8.53;4.53;;;;;;;12.14;94.43;101015.94;6050363;28;20026;-66
2023/06/16 01:59:12;;;;;;;6.80;3.90;;;;;;;12.07;95.09;101018.34;6050847;28;20097;-66
2023/06/16 02:02:14;;;;;;;7.28;4.20;;;;;;;12.07;95.72;101028.97;6050506;28;20076;-66
2023/06/16 02:05:11;;;;;;;10.68;4.72;;;;;;;12.19;95.03;101030.47;6051849;28;20042;-66
2023/06/16 02:08:06;;;;;;;8.10;4.50;;;;;;;12.19;94.61;101016.34;6053404;28;20034;-67
2023/06/16 02:11:02;;;;;;;8.23;4.32;;;;;;;12.25;94.67;101018.41;6040537;28;20571;-66
2023/06/16 02:13:57;;;;;;;8.57;4.30;;;;;;;12.06;95.58;100998.09;6064803;28;20088;-66
2023/06/16 02:16:53;;;;;;;9.13;3.90;;;;;;;12.32;94.78;101027.44;6065532;28;20034;-66
2023/06/16 02:19:48;;;;;;;10.07;4.97;;;;;;;12.32;93.83;101014.16;6032463;28;20029;-67
2023/06/16 02:22:43;;;;;;;8.13;4.60;;;;;;;12.37;93.93;101022.50;6028335;28;20041;-66
2023/06/16 02:25:39;;;;;;;9.07;4.28;;;;;;;12.26;94.58;101018.25;6062276;28;20080;-66
2023/06/16 02:28:34;;;;;;;7.30;4.30;;;;;;;12.37;93.98;101036.66;6065367;28;20053;-67
2023/06/16 02:31:29;;;;;;;8.02;4.47;;;;;;;12.64;93.29;101024.31;6043845;28;20269;-67
2023/06/16 02:34:25;;;;;;;9.80;4.10;;;;;;;12.80;91.32;101014.63;6038364;28;20037;-66
2023/06/16 02:37:20;;;;;;;8.83;4.40;;;;;;;13.00;90.14;101025.94;6036912;28;20076;-66
2023/06/16 02:40:16;;;;;;;8.60;4.90;;;;;;;12.83;89.27;101014.31;6050108;28;20600;-67
2023/06/16 02:43:11;;;;;;;9.23;4.70;;;;;;;12.81;89.93;101023.44;6046874;28;20374;-66
2023/06/16 02:46:06;;;;;;;10.55;4.53;;;;;;;12.92;90.01;101023.22;6048924;28;20276;-66
2023/06/16 02:49:02;;;;;;;9.30;3.97;;;;;;;12.88;90.03;101032.50;6045259;28;20557;-66
2023/06/16 02:51:57;;;;;;;10.40;4.50;;;;;;;12.87;89.67;101015.69;6049593;28;20030;-66
2023/06/16 02:54:53;;;;;;;11.13;4.45;;;;;;;12.85;90.42;101028.34;6049106;28;20026;-66
2023/06/16 02:57:48;;;;;;;10.07;4.17;;;;;;;12.89;90.01;101032.34;6039940;28;20044;-67
2023/06/16 03:00:43;;;;;;;7.67;4.53;;;;;;;12.75;90.59;101022.22;6043134;28;20034;-66
2023/06/16 03:03:39;;;;;;;9.35;4.28;;;;;;;12.89;90.70;101036.84;6049189;28;20037;-66
2023/06/16 03:06:34;;;;;;;8.13;4.13;;;;;;;12.99;90.20;101034.94;6040843;28;20042;-66
2023/06/16 03:09:29;;;;;;;10.02;4.28;;;;;;;12.97;89.84;101043.06;6045750;28;20025;-66
2023/06/16 03:12:25;;;;;;;7.47;4.07;;;;;;;13.00;89.83;101042.75;6047574;28;20026;-66
2023/06/16 03:15:25;;;;;;;7.97;4.23;;;;;;;12.93;90.28;101032.88;6047910;28;20029;-66
2023/06/16 03:18:20;;;;;;;9.25;3.88;;;;;;;13.11;90.11;101047.03;6043577;28;20026;-66
2023/06/16 03:21:16;;;;;;;8.32;4.03;;;;;;;13.15;89.54;101037.78;6025556;28;20030;-66
2023/06/16 03:24:13;;;;;;;8.65;4.38;;;;;;;13.24;89.25;101039.47;6050419;28;20057;-66
2023/06/16 03:27:08;;;;;;;8.95;4.65;;;;;;;13.25;90.41;101046.50;6045287;28;20044;-66
2023/06/16 03:30:04;;;;;;;10.65;4.40;;;;;;;13.17;90.79;101038.44;6046158;28;20033;-66
2023/06/16 03:32:59;;;;;;;9.45;4.82;;;;;;;13.12;91.23;101030.09;6042668;28;20026;-66
2023/06/16 03:35:55;;;;;;;9.18;4.72;;;;;;;13.18;90.81;101044.59;6040545;28;20026;-65
2023/06/16 03:38:50;;;;;;;11.03;5.20;;;;;;;13.13;90.49;101027.25;6046165;28;20036;-64
2023/06/16 03:41:45;;;;;;;10.40;5.20;;;;;;;13.18;90.27;101020.66;6039640;28;20022;-66
2023/06/16 03:44:41;;;;;;;10.00;4.73;;;;;;;13.20;90.16;101046.13;6035009;28;20107;-66
2023/06/16 03:47:36;;;;;;;7.77;4.83;;;;;;;13.22;89.87;101052.13;6053722;28;20025;-66
2023/06/16 03:50:31;;;;;;;9.10;4.90;;;;;;;13.32;89.75;101058.19;6035873;28;20274;-66
2023/06/16 03:53:28;;;;;;;8.40;4.78;;;;;;;13.26;89.06;101032.19;6040709;28;20068;-65
2023/06/16 03:56:23;;;;;;;11.40;5.63;;;;;;;13.38;88.93;101038.94;6041909;28;20033;-65
2023/06/16 03:59:19;;;;;;;10.20;4.97;;;;;;;13.48;88.01;101022.84;6048970;28;20874;-66
2023/06/16 04:02:14;;;;;;;10.68;5.10;;;;;;;13.73;87.99;101046.81;6027266;28;20034;-66
2023/06/16 04:05:09;;;;;;;9.88;4.57;;;;;;;13.76;87.99;101044.81;6024549;28;20031;-65
2023/06/16 04:08:05;;;;;;;11.10;4.97;;;;;;;13.67;88.34;101051.91;6050863;28;20033;-65
2023/06/16 04:11:00;;;;;;;10.95;4.93;;;;;;;13.79;88.34;101044.50;6053015;28;20100;-65
2023/06/16 04:13:56;;;;;;;9.70;4.63;;;;;;;13.66;88.54;101039.59;6052195;28;20038;-65
2023/06/16 04:16:51;;;;;;;10.55;4.70;;;;;;;13.77;89.85;101058.00;6049184;28;20030;-66
2023/06/16 04:19:46;;;;;;;7.90;4.20;;;;;;;13.84;88.85;101052.84;6030212;28;20485;-65
2023/06/16 04:22:42;;;;;;;11.97;5.23;;;;;;;13.99;88.58;101052.13;6019760;28;20694;-65
2023/06/16 04:25:38;;;;;;;7.47;4.20;;;;;;;13.89;89.05;101043.38;6041452;28;20285;-65
2023/06/16 04:28:33;;;;;;;10.60;4.78;;;;;;;13.83;89.78;101052.03;6022082;28;20135;-66
2023/06/16 04:31:31;;;;;;;8.63;4.50;;;;;;;14.28;88.36;101059.72;6021750;28;20030;-66
2023/06/16 04:34:31;;;;;;;8.52;4.75;;;;;;;14.43;86.65;101060.00;6044701;28;20027;-66
2023/06/16 04:37:26;;;;;;;9.65;4.88;;;;;;;14.26;87.43;101054.56;6040964;28;20030;-66
2023/06/16 04:40:22;;;;;;;11.30;4.70;;;;;;;14.35;87.62;101047.44;6051006;28;20385;-66
2023/06/16 04:43:17;;;;;;;10.23;4.73;;;;;;;14.37;87.71;101066.81;6047429;28;20026;-68
2023/06/16 04:46:12;;;;;;;9.73;5.40;;;;;;;14.27;88.41;101045.53;6032534;28;20092;-65
2023/06/16 04:49:08;;;;;;;9.70;5.10;;;;;;;14.38;88.33;101052.44;6046408;28;20322;-67
2023/06/16 04:52:06;;;;;;;11.38;5.25;;;;;;;14.32;89.20;101052.28;6050007;28;20087;-67
2023/06/16 04:55:03;;;;;;;8.75;4.70;;;;;;;14.31;89.58;101046.06;6041249;28;20044;-67
2023/06/16 04:57:58;;;;;;;9.27;5.20;;;;;;;14.51;90.01;101066.16;6038891;28;20030;-65
2023/06/16 05:00:53;;;;;;;8.87;4.83;;;;;;;14.57;89.08;101054.00;6044815;28;20049;-67
2023/06/16 05:03:49;;;;;;;9.00;5.27;;;;;;;14.56;89.71;101069.19;6050136;28;20264;-66
2023/06/16 05:06:44;;;;;;;11.27;5.63;;;;;;;14.56;89.85;101068.34;6040099;28;20041;-66
2023/06/16 05:09:39;;;;;;;9.90;5.60;;;;;;;14.50;88.80;101058.31;6045985;28;20034;-67
2023/06/16 05:12:34;;;;;;;10.53;5.67;;;;;;;14.49;89.91;101070.00;6036972;28;20046;-67
2023/06/16 05:15:30;;;;;;;8.43;5.32;;;;;;;14.65;89.79;101081.53;5999485;28;1015602;-66
2023/06/16 05:18:25;;;;;;;8.87;5.37;;;;;;;14.62;89.58;101081.88;6033586;28;20038;-67
2023/06/16 05:21:24;;;;;;;9.50;5.37;;;;;;;14.63;90.81;101083.56;6031198;28;20488;-67
2023/06/16 05:24:20;;;;;;;8.63;5.38;;;;;;;14.62;89.84;101065.03;6037567;28;20265;-66
2023/06/16 05:27:15;;;;;;;9.23;5.73;;;;;;;14.59;89.25;101074.22;6046663;28;20448;-66
2023/06/16 05:30:11;;;;;;;12.13;5.88;;;;;;;14.62;89.33;101075.72;6039968;28;20082;-66
2023/06/16 05:33:06;;;;;;;12.10;5.97;;;;;;;14.88;89.07;101081.78;6047288;28;20037;-66
2023/06/16 05:36:01;;;;;;;13.30;6.40;;;;;;;15.07;87.23;101086.81;6024242;28;20038;-66
2023/06/16 05:38:57;;;;;;;12.30;5.30;;;;;;;14.94;87.73;101067.75;6039752;28;20462;-66
2023/06/16 05:41:52;;;;;;;10.30;5.53;;;;;;;14.93;88.20;101058.06;6032198;28;20081;-66
2023/06/16 05:44:47;;;;;;;11.97;5.73;;;;;;;14.99;89.63;101072.59;6016583;28;20089;-66
2023/06/16 05:47:43;;;;;;;12.13;5.80;;;;;;;15.08;89.15;101066.28;6030658;28;20030;-66
2023/06/16 05:50:38;;;;;;;12.27;5.90;;;;;;;14.91;91.03;101065.41;6022030;28;20293;-66
2023/06/16 05:53:33;;;;;;;11.00;5.80;;;;;;;14.74;91.57;101083.25;6033588;28;20034;-65
2023/06/16 05:56:28;;;;;;;11.67;5.97;;;;;;;14.61;93.23;101061.53;6034627;28;20293;-65
2023/06/16 05:59:25;;;;;;;12.67;7.33;;;;;;;14.59;95.02;101055.53;6047128;28;20491;-65
2023/06/16 06:02:20;;;;;;;9.98;5.35;;;;;;;14.92;96.63;101066.25;6041269;28;20033;-65
2023/06/16 06:05:15;;;;;;;11.68;5.93;;;;;;;15.23;95.03;101060.09;6046879;28;20084;-64
2023/06/16 06:08:11;;;;;;;11.20;6.10;;;;;;;15.16;93.36;101072.47;6023709;28;20480;-64
2023/06/16 06:11:06;;;;;;;9.87;5.90;;;;;;;15.56;94.73;101076.97;6018822;28;20034;-64
2023/06/16 06:14:02;;;;;;;12.43;6.07;;;;;;;15.18;94.48;101080.28;6036613;28;20035;-64
2023/06/16 06:16:57;;;;;;;10.17;5.70;;;;;;;14.99;96.19;101069.94;6029038;28;20038;-63
2023/06/16 06:19:52;;;;;;;11.17;5.90;;;;;;;15.01;95.94;101084.78;6028971;28;20023;-63
2023/06/16 06:22:47;;;;;;;11.03;6.23;;;;;;;14.49;97.07;101053.97;6034534;28;20081;-63
2023/06/16 06:25:43;;;;;;;13.03;6.90;;;;;;;14.48;100.00;101055.84;6043810;28;20046;-63
2023/06/16 06:28:38;;;;;;;14.33;7.07;;;;;;;14.87;100.00;101053.38;6040113;28;20089;-63
2023/06/16 06:31:33;;;;;;;13.10;6.83;;;;;;;14.92;100.00;101064.41;6028831;28;20030;-64
2023/06/16 06:34:29;;;;;;;13.50;7.87;;;;;;;14.74;98.75;101043.19;6034040;28;20413;-63
2023/06/16 06:37:30;;;;;;;13.38;6.57;;;;;;;14.96;97.98;101038.22;6030938;28;20113;-63
2023/06/16 06:40:25;;;;;;;13.02;6.28;;;;;;;15.76;94.87;101042.69;6043316;28;20042;-64
2023/06/16 06:43:21;;;;;;;10.27;6.00;;;;;;;16.07;91.37;101044.41;6034373;28;20034;-63
2023/06/16 06:46:17;;;;;;;10.83;5.87;;;;;;;16.17;92.03;101048.72;6031906;28;20042;-63
2023/06/16 06:49:12;;;;;;;11.50;5.75;;;;;;;15.98;90.58;101039.25;6044283;28;20032;-65
2023/06/16 06:52:08;;;;;;;8.27;5.07;;;;;;;16.18;90.04;101051.19;6028838;28;20030;-65
2023/06/16 06:55:04;;;;;;;10.57;5.63;;;;;;;16.29;89.73;101055.34;6043916;28;20104;-65
2023/06/16 06:57:59;;;;;;;10.05;5.63;;;;;;;16.19;88.39;101058.25;6041295;28;20892;-64
2023/06/16 07:00:54;;;;;;;11.43;6.10;;;;;;;16.20;88.38;101059.06;6049945;28;20026;-65
2023/06/16 07:03:49;;;;;;;9.13;5.63;;;;;;;16.32;87.67;101045.13;6042361;28;20269;-64
2023/06/16 07:06:45;;;;;;;10.93;5.13;;;;;;;16.34;87.49;101050.28;6035590;28;20034;-64
2023/06/16 07:09:40;;;;;;;8.50;4.73;;;;;;;16.43;87.16;101071.50;6042508;28;20064;-63
2023/06/16 07:12:35;;;;;;;9.53;5.23;;;;;;;16.43;87.45;101071.50;6039265;28;20084;-66
2023/06/16 07:15:31;;;;;;;10.40;5.20;;;;;;;16.46;89.31;101060.44;6041299;28;20461;-65
2023/06/16 07:18:26;;;;;;;12.10;5.40;;;;;;;16.32;87.56;101077.25;6049672;28;20461;-65
2023/06/16 07:21:21;;;;;;;12.40;5.87;;;;;;;16.23;88.29;101064.06;6031984;28;20041;-65
2023/06/16 07:24:16;;;;;;;14.52;5.65;;;;;;;16.30;87.69;101073.91;6045212;28;20044;-65
2023/06/16 07:27:12;;;;;;;11.50;5.47;;;;;;;16.54;87.51;101065.78;6049380;28;20037;-66
2023/06/16 07:30:08;;;;;;;12.03;5.87;;;;;;;16.65;85.41;101073.44;6045264;28;20061;-66
2023/06/16 07:33:03;;;;;;;11.18;5.80;;;;;;;16.38;85.09;101068.53;6048831;28;20109;-66
2023/06/16 07:35:58;;;;;;;10.47;5.07;;;;;;;16.61;85.82;101074.78;6024629;28;20058;-66
2023/06/16 07:38:53;;;;;;;10.13;4.60;;;;;;;16.40;86.69;101065.66;6041036;28;20273;-65
2023/06/16 07:41:49;;;;;;;9.73;5.50;;;;;;;16.47;86.38;101067.44;6026754;28;20040;-66
2023/06/16 07:44:44;;;;;;;10.55;5.43;;;;;;;16.39;85.23;101078.19;6042584;28;20462;-66
2023/06/16 07:47:40;;;;;;;14.88;6.38;;;;;;;16.41;86.07;101068.19;6039399;28;20373;-65
2023/06/16 07:50:35;;;;;;;8.37;4.87;;;;;;;16.41;86.86;101054.78;6047508;28;20076;-65
2023/06/16 07:53:31;;;;;;;10.83;5.83;;;;;;;16.33;88.12;101054.00;6044000;28;20290;-65
2023/06/16 07:56:26;;;;;;;11.13;5.38;;;;;;;16.24;90.20;101050.50;6039244;28;20280;-66
2023/06/16 07:59:21;;;;;;;9.97;5.37;;;;;;;16.04;89.63;101049.25;6041556;28;20037;-65
2023/06/16 08:02:17;;;;;;;12.63;5.10;;;;;;;16.24;89.38;101034.47;6043903;28;20033;-66
2023/06/16 08:05:14;;;;;;;9.00;5.10;;;;;;;16.62;87.52;101036.28;6047393;28;20350;-65
2023/06/16 08:08:09;;;;;;;10.30;5.10;;;;;;;16.95;85.37;101033.38;6050293;28;20100;-65
2023/06/16 08:11:06;;;;;;;11.03;4.93;;;;;;;16.93;84.55;101035.41;6051011;28;20038;-65
2023/06/16 08:14:02;;;;;;;10.27;5.32;;;;;;;16.74;83.49;101030.53;6045253;28;20691;-65
2023/06/16 08:16:57;;;;;;;9.10;4.65;;;;;;;16.79;84.61;101036.16;6029346;28;20034;-65
2023/06/16 08:19:53;;;;;;;9.93;4.83;;;;;;;16.86;82.75;101037.13;6031520;28;20161;-66
2023/06/16 08:22:48;;;;;;;9.20;4.45;;;;;;;16.97;82.16;101052.78;6041270;28;20030;-66
2023/06/16 08:25:44;;;;;;;8.20;4.33;;;;;;;17.02;81.82;101045.03;6050078;28;20038;-65
2023/06/16 08:28:40;;;;;;;8.73;4.83;;;;;;;17.16;81.17;101033.53;6047779;28;20273;-65
2023/06/16 08:31:35;;;;;;;8.45;4.22;;;;;;;17.43;81.39;101054.38;6036299;28;20284;-65
2023/06/16 08:34:30;;;;;;;8.60;5.10;;;;;;;17.36;78.70;101056.16;6052320;28;20030;-65
2023/06/16 08:37:26;;;;;;;12.77;5.57;;;;;;;17.75;79.14;101054.09;6032362;28;20040;-65
2023/06/16 08:40:22;;;;;;;12.75;5.22;;;;;;;18.14;77.96;101042.25;6052393;28;20030;-66
2023/06/16 08:43:17;;;;;;;10.00;4.50;;;;;;;18.60;74.68;101046.34;6037317;28;20091;-66
2023/06/16 08:46:13;;;;;;;9.07;4.53;;;;;;;18.98;74.25;101047.78;6040453;28;20038;-66
2023/06/16 08:49:09;;;;;;;9.18;5.03;;;;;;;19.28;71.06;101053.00;6044613;28;20042;-65
2023/06/16 08:52:08;;;;;;;8.07;4.60;;;;;;;18.99;71.07;101046.75;6025914;28;20044;-65
2023/06/16 08:55:10;;;;;;;9.98;4.93;;;;;;;18.67;71.14;101039.16;6043871;28;20026;-64
2023/06/16 08:58:07;;;;;;;9.13;4.32;;;;;;;18.82;71.07;101057.94;6052214;28;20026;-65
2023/06/16 09:01:04;;;;;;;9.05;4.72;;;;;;;19.65;67.86;101050.00;6027755;28;20030;-66
2023/06/16 09:03:59;;;;;;;7.63;4.80;;;;;;;20.11;66.95;101056.47;6050912;28;20114;-65
2023/06/16 09:06:56;;;;;;;14.50;4.72;;;;;;;19.84;65.70;101043.91;6027906;28;20030;-65
2023/06/16 09:09:51;;;;;;;9.35;5.10;;;;;;;19.81;65.69;101060.44;6043940;28;20046;-65
2023/06/16 09:12:51;;;;;;;9.27;4.00;;;;;;;19.43;67.44;101040.34;6047832;28;20052;-65
2023/06/16 09:15:47;;;;;;;9.25;4.57;;;;;;;19.51;67.78;101046.38;6038943;28;20465;-65
2023/06/16 09:18:44;;;;;;;7.45;4.35;;;;;;;19.53;66.63;101047.03;6035529;28;20441;-66
2023/06/16 09:21:40;;;;;;;13.52;5.97;;;;;;;19.22;68.02;101041.16;6042546;28;20389;-66
2023/06/16 09:24:35;;;;;;;8.90;4.83;;;;;;;19.18;67.91;101047.13;6042472;28;20033;-65
2023/06/16 09:27:47;;;;;;;7.75;4.40;;;;;;;19.31;69.92;101060.69;6048443;28;20026;-66
2023/06/16 09:30:43;;;;;;;9.75;4.85;;;;;;;19.31;69.15;101047.22;6027194;28;20039;-65
2023/06/16 09:33:42;;;;;;;10.75;3.97;;;;;;;19.53;68.59;101052.41;6044392;28;20433;-65
2023/06/16 09:36:37;;;;;;;10.18;4.38;;;;;;;19.96;67.50;101036.94;6037607;28;20481;-65
2023/06/16 09:39:33;;;;;;;10.40;4.80;;;;;;;19.76;66.87;101038.69;6051299;28;20069;-65
2023/06/16 09:42:29;;;;;;;8.23;4.80;;;;;;;19.89;65.62;101030.72;6040682;28;20025;-65
2023/06/16 09:45:30;;;;;;;9.30;4.40;;;;;;;20.06;64.14;101042.78;6025797;28;20462;-67
2023/06/16 09:48:25;;;;;;;7.82;3.90;;;;;;;20.10;65.23;101027.91;6041390;28;20319;-65
2023/06/16 09:51:22;;;;;;;6.82;4.07;;;;;;;21.03;62.50;101034.41;6036902;28;20104;-65
2023/06/16 09:54:19;;;;;;;9.77;4.45;;;;;;;20.74;60.84;101033.75;6035642;28;20026;-65
2023/06/16 09:57:15;;;;;;;8.82;4.55;;;;;;;21.71;59.19;101011.56;6050636;28;20030;-65
2023/06/16 10:00:16;;;;;;;5.97;3.92;;;;;;;21.93;57.87;101011.09;6027260;28;20466;-65
2023/06/16 10:03:12;;;;;;;8.70;4.40;;;;;;;21.83;57.69;101004.47;6043550;28;20026;-65
2023/06/16 10:06:14;;;;;;;6.75;3.67;;;;;;;21.75;57.95;101013.63;6035815;28;20041;-66
2023/06/16 10:09:10;;;;;;;8.90;4.68;;;;;;;22.13;56.47;100999.41;6034190;28;20041;-65
2023/06/16 10:12:07;;;;;;;7.22;4.32;;;;;;;21.36;58.68;100997.50;6047508;28;20044;-66
2023/06/16 10:15:03;;;;;;;6.57;3.97;;;;;;;20.76;61.31;101007.41;6060586;28;20060;-65
2023/06/16 10:18:03;;;;;;;7.78;4.63;;;;;;;21.33;59.45;101003.31;6050103;28;20057;-65
2023/06/16 10:21:00;;;;;;;6.50;3.58;;;;;;;22.03;59.11;100997.16;6042695;28;20367;-66
2023/06/16 10:23:55;;;;;;;7.53;4.60;;;;;;;22.06;57.43;100983.22;6061767;28;20393;-65
2023/06/16 10:26:51;;;;;;;8.27;4.43;;;;;;;22.67;56.26;100985.41;6036193;28;20037;-65
2023/06/16 10:29:46;;;;;;;8.45;4.40;;;;;;;22.41;55.21;100979.09;6043088;28;20284;-64
2023/06/16 10:32:46;;;;;;;7.18;4.57;;;;;;;22.45;55.60;100988.41;6061522;28;20120;-65
2023/06/16 10:35:48;;;;;;;;;;;;;;;22.12;55.85;100982.38;6037632;28;20069;-65
2023/06/16 10:38:54;;;;;;;6.45;4.07;;;;;;;23.01;53.84;100984.97;6041112;28;20043;-66
2023/06/16 10:41:57;;;;;;;;;;;;;;;23.01;53.46;100983.09;6040650;28;20054;-65
2023/06/16 10:44:52;;;;;;;9.43;3.90;;;;;;;22.99;53.47;100973.53;6042049;28;19941;-65
2023/06/16 10:47:57;;;;;;;11.10;4.23;;;;;;;22.73;54.35;100962.91;6035007;28;20374;-65
2023/06/16 10:50:59;;;;;;;9.15;4.43;;;;;;;21.86;56.85;100963.53;6029441;28;20696;-65
2023/06/16 10:53:55;;;;;;;7.47;4.40;;;;;;;22.13;56.88;100957.00;6023971;28;20026;-66
2023/06/16 10:57:06;;;;;;;8.38;4.18;;;;;;;22.14;55.08;100945.16;6040379;28;20030;-66
2023/06/16 11:00:12;;;;;;;8.18;3.97;;;;;;;22.21;55.61;100962.16;6046849;28;20034;-65
2023/06/16 11:03:07;;;;;;;9.43;4.57;;;;;;;22.49;54.12;100946.41;6038897;28;20034;-66
2023/06/16 11:06:03;;;;;;;8.67;4.13;;;;;;;23.26;52.81;100956.03;6029589;28;20057;-65
2023/06/16 11:09:05;;;;;;;7.65;4.05;;;;;;;23.99;49.07;100956.06;6048965;28;20032;-66
2023/06/16 11:12:00;;;;;;;6.90;3.85;;;;;;;24.10;50.52;100960.75;6037954;28;20120;-66
2023/06/16 11:14:55;;;;;;;8.53;4.07;;;;;;;24.43;47.75;100931.31;6063929;28;20429;-65
2023/06/16 11:17:51;;;;;;;7.65;3.92;;;;;;;24.18;48.73;100952.28;6035974;28;20523;-66
2023/06/16 11:20:47;;;;;;;9.57;4.60;;;;;;;24.13;49.17;100938.59;6028738;28;20033;-65
2023/06/16 11:23:43;;;;;;;9.43;4.50;;;;;;;24.25;48.56;100943.00;6040853;28;20385;-66
2023/06/16 11:26:39;;;;;;;10.20;4.72;;;;;;;23.03;52.86;100950.38;6041790;28;20057;-65
2023/06/16 11:29:36;;;;;;;8.85;5.18;;;;;;;23.13;51.26;100942.59;6047182;28;20018;-65
2023/06/16 11:32:36;;;;;;;7.20;4.97;;;;;;;23.06;50.90;100931.00;6045006;28;20026;-65
2023/06/16 11:35:32;;;;;;;10.30;5.10;;;;;;;23.16;51.54;100957.53;6035831;28;20454;-65
2023/06/16 11:38:28;;;;;;;8.73;5.13;;;;;;;22.72;51.17;100959.38;6042534;28;20038;-66
2023/06/16 11:41:26;;;;;;;8.47;4.63;;;;;;;22.66;53.89;100957.56;6030129;28;20550;-65
2023/06/16 11:44:21;;;;;;;10.52;4.88;;;;;;;22.24;54.41;100958.19;6040153;28;20026;-66
2023/06/16 11:47:17;;;;;;;8.52;4.90;;;;;;;22.06;54.80;100955.38;6036654;28;20060;-65
2023/06/16 11:50:13;;;;;;;7.32;4.82;;;;;;;22.19;52.77;100950.75;6051455;28;20033;-64
2023/06/16 11:53:12;;;;;;;8.27;4.83;;;;;;;22.19;52.12;100937.22;6030861;28;20030;-65
2023/06/16 11:56:08;;;;;;;7.80;5.45;;;;;;;22.53;51.46;100936.81;6044894;28;20280;-65
2023/06/16 11:59:05;;;;;;;7.22;4.97;;;;;;;22.87;52.16;100948.22;6039767;28;20374;-65
2023/06/16 12:02:01;;;;;;;8.35;5.25;;;;;;;23.12;50.98;100932.81;6053258;28;20029;-65
2023/06/16 12:04:57;;;;;;;9.40;5.75;;;;;;;23.35;49.74;100922.16;6041807;28;20030;-66
2023/06/16 12:07:53;;;;;;;9.30;5.45;;;;;;;23.33;48.46;100931.56;6048024;28;20041;-66
2023/06/16 12:10:54;;;;;;;8.80;4.90;;;;;;;23.52;48.70;100915.16;6045889;28;20080;-66
2023/06/16 12:13:51;;;;;;;8.07;5.00;;;;;;;23.53;50.37;100918.69;6033622;28;20030;-65
2023/06/16 12:16:48;;;;;;;7.30;4.80;;;;;;;24.23;47.16;100922.63;6042785;28;20529;-66
2023/06/16 12:19:45;;;;;;;8.35;4.90;;;;;;;24.34;48.00;100918.28;6048604;28;20057;-66
2023/06/16 12:22:40;;;;;;;9.68;5.22;;;;;;;24.36;48.79;100925.13;6025710;28;20125;-66
2023/06/16 12:25:36;;;;;;;9.18;5.57;;;;;;;23.52;49.18;100925.97;6033808;28;20473;-67
2023/06/16 12:28:31;;;;;;;5.57;4.20;;;;;;;23.58;50.29;100930.50;6050509;28;20052;-66
2023/06/16 12:31:28;;;;;;;8.57;5.20;;;;;;;23.48;50.81;100930.19;6041930;28;20377;-67
2023/06/16 12:34:30;;;;;;;11.20;5.20;;;;;;;22.90;51.95;100909.94;6034425;28;20034;-66
2023/06/16 12:37:26;;;;;;;8.45;4.70;;;;;;;23.27;53.25;100921.63;6034051;28;20544;-66
2023/06/16 12:40:28;;;;;;;9.75;5.43;;;;;;;23.44;51.46;100925.44;6052735;28;20030;-66
2023/06/16 12:43:24;;;;;;;6.93;4.95;;;;;;;23.51;51.48;100929.72;6040059;28;20034;-67
2023/06/16 12:46:20;;;;;;;7.80;5.05;;;;;;;23.50;52.19;100919.13;6029917;28;20029;-67
2023/06/16 12:49:15;;;;;;;9.65;5.45;;;;;;;23.33;52.62;100920.75;6052374;28;20042;-66
2023/06/16 12:52:12;;;;;;;10.00;5.63;;;;;;;23.27;52.87;100906.22;6044731;28;20053;-66
2023/06/16 12:55:08;;;;;;;10.13;5.35;;;;;;;24.01;50.38;100895.16;6047969;28;21445;-66
2023/06/16 12:58:03;;;;;;;10.55;5.88;;;;;;;23.98;49.39;100897.50;6049552;28;20029;-66
2023/06/16 13:00:58;;;;;;;12.43;5.27;;;;;;;23.50;50.73;100897.47;6046074;28;20034;-66
2023/06/16 13:03:54;;;;;;;9.27;5.47;;;;;;;23.10;51.88;100905.16;6051300;28;20303;-66
2023/06/16 13:06:49;;;;;;;7.82;5.25;;;;;;;23.03;52.69;100916.03;6043044;28;20045;-66
2023/06/16 13:09:44;;;;;;;9.37;5.30;;;;;;;22.99;53.86;100900.50;6049572;28;20096;-67
2023/06/16 13:12:40;;;;;;;10.17;5.27;;;;;;;22.33;56.29;100875.81;6046266;28;20037;-66
2023/06/16 13:15:35;;;;;;;8.57;5.80;;;;;;;22.31;56.40;100881.44;6042729;28;20385;-66
2023/06/16 13:18:30;;;;;;;7.93;4.97;;;;;;;22.59;55.67;100896.41;6051769;28;20057;-66
2023/06/16 13:21:26;;;;;;;10.53;5.80;;;;;;;22.36;56.44;100894.31;6032114;28;20341;-66
2023/06/16 13:24:22;;;;;;;9.45;5.90;;;;;;;22.08;57.76;100896.56;6035251;28;20034;-66
2023/06/16 13:27:18;;;;;;;9.20;6.17;;;;;;;22.19;57.02;100885.91;6023180;28;20032;-67
2023/06/16 13:30:14;;;;;;;9.82;5.32;;;;;;;22.05;58.10;100894.28;6042940;28;20512;-67
2023/06/16 13:33:09;;;;;;;11.77;5.03;;;;;;;22.28;58.02;100900.81;6027548;28;20057;-67
2023/06/16 13:36:05;;;;;;;10.13;5.23;;;;;;;22.42;56.20;100915.88;6011423;28;20026;-66